sensor_id;sensor_type;location;lat;lon;timestamp;temperature;humidity
29201;DHT22;16244;51.956;12.980;2024-02-23T00:01:24;10.00;99.90
29201;DHT22;16244;51.956;12.980;2024-02-23T00:03:52;10.10;99.90
29201;DHT22;16244;51.956;12.980;2024-02-23T00:06:21;10.10;99.90
29201;DHT22;16244;51.956;12.980;2024-02-23T00:08:50;10.10;99.90
29201;DHT22;16244;51.956;12.980;2024-02-23T00:11:19;10.00;99.90
29201;DHT22;16244;51.956;12.980;2024-02-23T00:13:47;10.00;99.90
29201;DHT22;16244;51.956;12.980;2024-02-23T00:16:14;10.00;99.90
29201;DHT22;16244;51.956;12.980;2024-02-23T00:18:42;10.00;99.90
29201;DHT22;16244;51.956;12.980;2024-02-23T00:21:09;10.00;99.90
29201;DHT22;16244;51.956;12.980;2024-02-23T00:23:37;10.00;99.90
29201;DHT22;16244;51.956;12.980;2024-02-23T00:26:06;10.10;99.90
29201;DHT22;16244;51.956;12.980;2024-02-23T00:28:33;10.10;99.90
29201;DHT22;16244;51.956;12.980;2024-02-23T00:31:01;10.20;99.90
29201;DHT22;16244;51.956;12.980;2024-02-23T00:33:28;10.20;99.90
29201;DHT22;16244;51.956;12.980;2024-02-23T00:35:55;10.20;99.90
29201;DHT22;16244;51.956;12.980;2024-02-23T00:38:23;10.20;99.90
29201;DHT22;16244;51.956;12.980;2024-02-23T00:40:50;10.20;99.90
29201;DHT22;16244;51.956;12.980;2024-02-23T00:43:20;10.20;99.90
29201;DHT22;16244;51.956;12.980;2024-02-23T00:45:48;10.20;99.90
29201;DHT22;16244;51.956;12.980;2024-02-23T00:48:16;10.20;99.90
29201;DHT22;16244;51.956;12.980;2024-02-23T00:50:43;10.10;99.90
29201;DHT22;16244;51.956;12.980;2024-02-23T00:53:11;10.10;99.90
29201;DHT22;16244;51.956;12.980;2024-02-23T00:55:38;10.20;99.90
29201;DHT22;16244;51.956;12.980;2024-02-23T00:58:06;10.30;99.90
29201;DHT22;16244;51.956;12.980;2024-02-23T01:00:35;10.30;99.90
29201;DHT22;16244;51.956;12.980;2024-02-23T01:03:02;10.30;99.90
29201;DHT22;16244;51.956;12.980;2024-02-23T01:05:30;10.40;99.90
29201;DHT22;16244;51.956;12.980;2024-02-23T01:07:57;10.40;99.90
29201;DHT22;16244;51.956;12.980;2024-02-23T01:10:25;10.40;99.90
29201;DHT22;16244;51.956;12.980;2024-02-23T01:12:53;10.60;99.90
29201;DHT22;16244;51.956;12.980;2024-02-23T01:15:21;10.60;99.90
29201;DHT22;16244;51.956;12.980;2024-02-23T01:17:50;10.80;99.90
29201;DHT22;16244;51.956;12.980;2024-02-23T01:20:17;10.90;99.90
29201;DHT22;16244;51.956;12.980;2024-02-23T01:22:44;11.00;99.90
29201;DHT22;16244;51.956;12.980;2024-02-23T01:25:12;11.00;99.90
29201;DHT22;16244;51.956;12.980;2024-02-23T01:27:42;11.00;99.90
29201;DHT22;16244;51.956;12.980;2024-02-23T01:30:11;11.00;99.90
29201;DHT22;16244;51.956;12.980;2024-02-23T01:32:39;10.90;99.90
29201;DHT22;16244;51.956;12.980;2024-02-23T01:35:08;10.90;98.00
29201;DHT22;16244;51.956;12.980;2024-02-23T01:37:36;10.80;93.10
29201;DHT22;16244;51.956;12.980;2024-02-23T01:40:05;10.70;92.00
29201;DHT22;16244;51.956;12.980;2024-02-23T01:42:32;10.50;87.20
29201;DHT22;16244;51.956;12.980;2024-02-23T01:45:00;10.40;88.50
29201;DHT22;16244;51.956;12.980;2024-02-23T01:47:28;10.40;87.70
29201;DHT22;16244;51.956;12.980;2024-02-23T01:49:57;10.30;87.20
29201;DHT22;16244;51.956;12.980;2024-02-23T01:52:26;10.20;88.20
29201;DHT22;16244;51.956;12.980;2024-02-23T01:54:54;10.10;87.30
29201;DHT22;16244;51.956;12.980;2024-02-23T01:57:23;10.10;87.60
29201;DHT22;16244;51.956;12.980;2024-02-23T01:59:51;10.00;90.00
29201;DHT22;16244;51.956;12.980;2024-02-23T02:02:19;10.00;85.60
29201;DHT22;16244;51.956;12.980;2024-02-23T02:04:46;9.90;87.70
29201;DHT22;16244;51.956;12.980;2024-02-23T02:07:14;9.90;87.80
29201;DHT22;16244;51.956;12.980;2024-02-23T02:09:45;9.80;88.50
29201;DHT22;16244;51.956;12.980;2024-02-23T02:12:12;9.70;88.50
29201;DHT22;16244;51.956;12.980;2024-02-23T02:14:40;9.70;90.00
29201;DHT22;16244;51.956;12.980;2024-02-23T02:17:07;9.60;90.70
29201;DHT22;16244;51.956;12.980;2024-02-23T02:19:35;9.70;88.20
29201;DHT22;16244;51.956;12.980;2024-02-23T02:22:02;9.70;87.60
29201;DHT22;16244;51.956;12.980;2024-02-23T02:24:30;9.70;88.30
29201;DHT22;16244;51.956;12.980;2024-02-23T02:26:59;9.60;88.70
29201;DHT22;16244;51.956;12.980;2024-02-23T02:29:26;9.50;89.00
29201;DHT22;16244;51.956;12.980;2024-02-23T02:31:54;9.60;87.70
29201;DHT22;16244;51.956;12.980;2024-02-23T02:34:21;9.60;87.10
29201;DHT22;16244;51.956;12.980;2024-02-23T02:36:49;9.60;87.80
29201;DHT22;16244;51.956;12.980;2024-02-23T02:39:17;9.60;88.60
29201;DHT22;16244;51.956;12.980;2024-02-23T02:41:45;9.50;89.10
29201;DHT22;16244;51.956;12.980;2024-02-23T02:44:13;9.50;90.20
29201;DHT22;16244;51.956;12.980;2024-02-23T02:46:41;9.40;90.50
29201;DHT22;16244;51.956;12.980;2024-02-23T02:49:09;9.40;91.50
29201;DHT22;16244;51.956;12.980;2024-02-23T02:51:36;9.40;91.90
29201;DHT22;16244;51.956;12.980;2024-02-23T02:54:05;9.40;91.50
29201;DHT22;16244;51.956;12.980;2024-02-23T02:56:32;9.30;92.40
29201;DHT22;16244;51.956;12.980;2024-02-23T02:59:00;9.20;92.50
29201;DHT22;16244;51.956;12.980;2024-02-23T03:01:29;9.30;91.60
29201;DHT22;16244;51.956;12.980;2024-02-23T03:03:56;9.30;92.30
29201;DHT22;16244;51.956;12.980;2024-02-23T03:06:23;9.30;92.50
29201;DHT22;16244;51.956;12.980;2024-02-23T03:08:51;9.20;92.40
29201;DHT22;16244;51.956;12.980;2024-02-23T03:11:18;9.20;91.70
29201;DHT22;16244;51.956;12.980;2024-02-23T03:13:46;9.20;90.30
29201;DHT22;16244;51.956;12.980;2024-02-23T03:16:15;9.20;90.50
29201;DHT22;16244;51.956;12.980;2024-02-23T03:18:45;9.10;90.10
29201;DHT22;16244;51.956;12.980;2024-02-23T03:21:13;9.10;89.60
29201;DHT22;16244;51.956;12.980;2024-02-23T03:23:41;9.10;89.40
29201;DHT22;16244;51.956;12.980;2024-02-23T03:26:09;9.00;88.60
29201;DHT22;16244;51.956;12.980;2024-02-23T03:28:36;9.00;88.00
29201;DHT22;16244;51.956;12.980;2024-02-23T03:31:03;8.90;88.90
29201;DHT22;16244;51.956;12.980;2024-02-23T03:33:31;8.90;90.20
29201;DHT22;16244;51.956;12.980;2024-02-23T03:36:00;8.90;90.30
29201;DHT22;16244;51.956;12.980;2024-02-23T03:38:28;8.90;90.10
29201;DHT22;16244;51.956;12.980;2024-02-23T03:40:56;8.80;90.60
29201;DHT22;16244;51.956;12.980;2024-02-23T03:43:23;8.80;90.80
29201;DHT22;16244;51.956;12.980;2024-02-23T03:45:51;8.70;91.10
29201;DHT22;16244;51.956;12.980;2024-02-23T03:48:18;8.70;91.30
29201;DHT22;16244;51.956;12.980;2024-02-23T03:50:46;8.60;91.70
29201;DHT22;16244;51.956;12.980;2024-02-23T03:53:15;8.50;92.80
29201;DHT22;16244;51.956;12.980;2024-02-23T03:55:42;8.40;93.10
29201;DHT22;16244;51.956;12.980;2024-02-23T03:58:10;8.40;93.30
29201;DHT22;16244;51.956;12.980;2024-02-23T04:00:37;8.30;93.70
29201;DHT22;16244;51.956;12.980;2024-02-23T04:03:05;8.30;94.30
29201;DHT22;16244;51.956;12.980;2024-02-23T04:05:32;8.30;94.10
29201;DHT22;16244;51.956;12.980;2024-02-23T04:08:00;8.20;94.60
29201;DHT22;16244;51.956;12.980;2024-02-23T04:10:29;8.20;94.90
29201;DHT22;16244;51.956;12.980;2024-02-23T04:12:57;8.20;94.90
29201;DHT22;16244;51.956;12.980;2024-02-23T04:15:25;8.10;95.40
29201;DHT22;16244;51.956;12.980;2024-02-23T04:17:52;8.10;95.40
29201;DHT22;16244;51.956;12.980;2024-02-23T04:20:20;8.00;95.80
29201;DHT22;16244;51.956;12.980;2024-02-23T04:22:47;8.00;95.90
29201;DHT22;16244;51.956;12.980;2024-02-23T04:25:15;7.90;96.70
29201;DHT22;16244;51.956;12.980;2024-02-23T04:27:44;7.90;96.80
29201;DHT22;16244;51.956;12.980;2024-02-23T04:30:12;7.80;97.10
29201;DHT22;16244;51.956;12.980;2024-02-23T04:32:39;7.80;98.00
29201;DHT22;16244;51.956;12.980;2024-02-23T04:35:08;7.70;98.10
29201;DHT22;16244;51.956;12.980;2024-02-23T04:37:35;7.70;98.50
29201;DHT22;16244;51.956;12.980;2024-02-23T04:40:04;7.70;98.50
29201;DHT22;16244;51.956;12.980;2024-02-23T04:42:31;7.60;98.70
29201;DHT22;16244;51.956;12.980;2024-02-23T04:45:00;7.60;99.10
29201;DHT22;16244;51.956;12.980;2024-02-23T04:47:28;7.50;99.10
29201;DHT22;16244;51.956;12.980;2024-02-23T04:49:55;7.50;99.50
29201;DHT22;16244;51.956;12.980;2024-02-23T04:52:23;7.40;99.30
29201;DHT22;16244;51.956;12.980;2024-02-23T04:54:51;7.40;99.70
29201;DHT22;16244;51.956;12.980;2024-02-23T04:57:18;7.40;99.90
29201;DHT22;16244;51.956;12.980;2024-02-23T04:59:46;7.40;99.90
29201;DHT22;16244;51.956;12.980;2024-02-23T05:02:15;7.30;99.90
29201;DHT22;16244;51.956;12.980;2024-02-23T05:04:42;7.30;99.80
29201;DHT22;16244;51.956;12.980;2024-02-23T05:07:10;7.30;99.80
29201;DHT22;16244;51.956;12.980;2024-02-23T05:09:37;7.30;99.90
29201;DHT22;16244;51.956;12.980;2024-02-23T05:12:07;7.20;99.90
29201;DHT22;16244;51.956;12.980;2024-02-23T05:14:35;7.30;99.70
29201;DHT22;16244;51.956;12.980;2024-02-23T05:17:03;7.20;99.90
29201;DHT22;16244;51.956;12.980;2024-02-23T05:19:32;7.10;99.90
29201;DHT22;16244;51.956;12.980;2024-02-23T05:21:59;7.10;99.90
29201;DHT22;16244;51.956;12.980;2024-02-23T05:24:26;7.10;99.90
29201;DHT22;16244;51.956;12.980;2024-02-23T05:26:54;7.00;99.90
29201;DHT22;16244;51.956;12.980;2024-02-23T05:29:24;7.00;99.90
29201;DHT22;16244;51.956;12.980;2024-02-23T05:31:52;7.00;99.90
29201;DHT22;16244;51.956;12.980;2024-02-23T05:34:20;7.00;99.90
29201;DHT22;16244;51.956;12.980;2024-02-23T05:36:49;6.90;99.90
29201;DHT22;16244;51.956;12.980;2024-02-23T05:39:17;6.90;99.90
29201;DHT22;16244;51.956;12.980;2024-02-23T05:41:45;6.90;99.90
29201;DHT22;16244;51.956;12.980;2024-02-23T05:44:13;6.80;99.90
29201;DHT22;16244;51.956;12.980;2024-02-23T05:46:42;6.80;99.90
29201;DHT22;16244;51.956;12.980;2024-02-23T05:49:11;6.80;99.90
29201;DHT22;16244;51.956;12.980;2024-02-23T05:51:38;6.80;99.70
29201;DHT22;16244;51.956;12.980;2024-02-23T05:54:08;6.80;99.40
29201;DHT22;16244;51.956;12.980;2024-02-23T05:56:35;6.90;99.00
29201;DHT22;16244;51.956;12.980;2024-02-23T05:59:03;6.90;98.60
29201;DHT22;16244;51.956;12.980;2024-02-23T06:01:31;6.90;99.00
29201;DHT22;16244;51.956;12.980;2024-02-23T06:03:58;6.90;98.60
29201;DHT22;16244;51.956;12.980;2024-02-23T06:06:26;6.80;99.00
29201;DHT22;16244;51.956;12.980;2024-02-23T06:08:53;6.80;98.50
29201;DHT22;16244;51.956;12.980;2024-02-23T06:11:22;6.80;97.80
29201;DHT22;16244;51.956;12.980;2024-02-23T06:13:50;6.80;98.70
29201;DHT22;16244;51.956;12.980;2024-02-23T06:16:16;6.70;98.70
29201;DHT22;16244;51.956;12.980;2024-02-23T06:18:44;6.70;98.50
29201;DHT22;16244;51.956;12.980;2024-02-23T06:21:12;6.70;98.90
29201;DHT22;16244;51.956;12.980;2024-02-23T06:23:40;6.70;99.50
29201;DHT22;16244;51.956;12.980;2024-02-23T06:26:08;6.70;99.30
29201;DHT22;16244;51.956;12.980;2024-02-23T06:28:37;6.70;99.20
29201;DHT22;16244;51.956;12.980;2024-02-23T06:31:08;6.80;98.40
29201;DHT22;16244;51.956;12.980;2024-02-23T06:33:36;6.80;98.70
29201;DHT22;16244;51.956;12.980;2024-02-23T06:36:04;6.80;98.20
29201;DHT22;16244;51.956;12.980;2024-02-23T06:38:31;6.90;97.90
29201;DHT22;16244;51.956;12.980;2024-02-23T06:40:59;6.90;98.10
29201;DHT22;16244;51.956;12.980;2024-02-23T06:43:27;6.90;98.40
29201;DHT22;16244;51.956;12.980;2024-02-23T06:45:56;6.90;98.20
29201;DHT22;16244;51.956;12.980;2024-02-23T06:48:23;6.90;98.10
29201;DHT22;16244;51.956;12.980;2024-02-23T06:50:52;6.90;97.90
29201;DHT22;16244;51.956;12.980;2024-02-23T06:53:19;6.90;97.20
29201;DHT22;16244;51.956;12.980;2024-02-23T06:55:47;6.90;96.70
29201;DHT22;16244;51.956;12.980;2024-02-23T06:58:14;6.90;96.50
29201;DHT22;16244;51.956;12.980;2024-02-23T07:00:43;6.90;96.10
29201;DHT22;16244;51.956;12.980;2024-02-23T07:03:11;6.90;96.90
29201;DHT22;16244;51.956;12.980;2024-02-23T07:05:39;6.90;96.50
29201;DHT22;16244;51.956;12.980;2024-02-23T07:08:08;6.90;96.60
29201;DHT22;16244;51.956;12.980;2024-02-23T07:10:36;6.90;96.40
29201;DHT22;16244;51.956;12.980;2024-02-23T07:13:04;6.90;96.70
29201;DHT22;16244;51.956;12.980;2024-02-23T07:15:31;6.90;96.70
29201;DHT22;16244;51.956;12.980;2024-02-23T07:17:59;6.90;96.60
29201;DHT22;16244;51.956;12.980;2024-02-23T07:20:28;6.80;96.80
29201;DHT22;16244;51.956;12.980;2024-02-23T07:22:55;6.80;96.70
29201;DHT22;16244;51.956;12.980;2024-02-23T07:25:23;6.90;97.00
29201;DHT22;16244;51.956;12.980;2024-02-23T07:27:51;6.90;96.50
29201;DHT22;16244;51.956;12.980;2024-02-23T07:30:20;6.90;97.30
29201;DHT22;16244;51.956;12.980;2024-02-23T07:32:47;6.90;96.90
29201;DHT22;16244;51.956;12.980;2024-02-23T07:35:15;6.90;97.10
29201;DHT22;16244;51.956;12.980;2024-02-23T07:37:44;6.90;96.90
29201;DHT22;16244;51.956;12.980;2024-02-23T07:40:12;6.90;96.60
29201;DHT22;16244;51.956;12.980;2024-02-23T07:42:40;7.00;97.70
29201;DHT22;16244;51.956;12.980;2024-02-23T07:45:08;7.10;96.80
29201;DHT22;16244;51.956;12.980;2024-02-23T07:47:37;7.20;96.90
29201;DHT22;16244;51.956;12.980;2024-02-23T07:50:05;7.30;95.40
29201;DHT22;16244;51.956;12.980;2024-02-23T07:52:33;7.40;95.90
29201;DHT22;16244;51.956;12.980;2024-02-23T07:55:02;7.30;95.80
29201;DHT22;16244;51.956;12.980;2024-02-23T07:57:31;7.30;95.60
29201;DHT22;16244;51.956;12.980;2024-02-23T07:59:59;7.30;96.30
29201;DHT22;16244;51.956;12.980;2024-02-23T08:02:26;7.40;96.30
29201;DHT22;16244;51.956;12.980;2024-02-23T08:04:54;7.50;95.50
29201;DHT22;16244;51.956;12.980;2024-02-23T08:07:21;7.50;95.00
29201;DHT22;16244;51.956;12.980;2024-02-23T08:09:49;7.50;94.80
29201;DHT22;16244;51.956;12.980;2024-02-23T08:12:18;7.50;95.10
29201;DHT22;16244;51.956;12.980;2024-02-23T08:14:46;7.40;94.90
29201;DHT22;16244;51.956;12.980;2024-02-23T08:17:16;7.40;95.20
29201;DHT22;16244;51.956;12.980;2024-02-23T08:19:44;7.40;95.60
29201;DHT22;16244;51.956;12.980;2024-02-23T08:22:11;7.40;94.80
29201;DHT22;16244;51.956;12.980;2024-02-23T08:24:39;7.40;94.10
29201;DHT22;16244;51.956;12.980;2024-02-23T08:27:06;7.40;95.40
29201;DHT22;16244;51.956;12.980;2024-02-23T08:29:37;7.30;95.50
29201;DHT22;16244;51.956;12.980;2024-02-23T08:32:06;7.40;94.70
29201;DHT22;16244;51.956;12.980;2024-02-23T08:34:33;7.40;94.70
29201;DHT22;16244;51.956;12.980;2024-02-23T08:37:01;7.50;94.90
29201;DHT22;16244;51.956;12.980;2024-02-23T08:39:29;7.50;94.30
29201;DHT22;16244;51.956;12.980;2024-02-23T08:41:57;7.70;93.70
29201;DHT22;16244;51.956;12.980;2024-02-23T08:44:24;7.90;92.90
29201;DHT22;16244;51.956;12.980;2024-02-23T08:46:53;8.20;91.80
29201;DHT22;16244;51.956;12.980;2024-02-23T08:49:21;8.30;90.80
29201;DHT22;16244;51.956;12.980;2024-02-23T08:51:48;8.40;90.50
29201;DHT22;16244;51.956;12.980;2024-02-23T08:54:16;8.40;90.20
29201;DHT22;16244;51.956;12.980;2024-02-23T08:56:44;8.70;89.40
29201;DHT22;16244;51.956;12.980;2024-02-23T08:59:12;8.90;87.00
29201;DHT22;16244;51.956;12.980;2024-02-23T09:01:40;9.00;85.90
29201;DHT22;16244;51.956;12.980;2024-02-23T09:04:12;9.30;84.70
29201;DHT22;16244;51.956;12.980;2024-02-23T09:06:40;9.70;81.60
29201;DHT22;16244;51.956;12.980;2024-02-23T09:09:07;9.90;77.40
29201;DHT22;16244;51.956;12.980;2024-02-23T09:11:35;10.20;78.40
29201;DHT22;16244;51.956;12.980;2024-02-23T09:14:04;10.20;78.00
29201;DHT22;16244;51.956;12.980;2024-02-23T09:16:31;9.90;77.80
29201;DHT22;16244;51.956;12.980;2024-02-23T09:18:59;9.80;78.70
29201;DHT22;16244;51.956;12.980;2024-02-23T09:21:28;10.10;79.00
29201;DHT22;16244;51.956;12.980;2024-02-23T09:23:56;10.40;77.20
29201;DHT22;16244;51.956;12.980;2024-02-23T09:26:23;10.20;73.90
29201;DHT22;16244;51.956;12.980;2024-02-23T09:28:51;10.00;76.80
29201;DHT22;16244;51.956;12.980;2024-02-23T09:31:19;10.20;78.30
29201;DHT22;16244;51.956;12.980;2024-02-23T09:33:48;10.10;74.50
29201;DHT22;16244;51.956;12.980;2024-02-23T09:36:17;10.10;76.30
29201;DHT22;16244;51.956;12.980;2024-02-23T09:38:46;10.30;75.90
29201;DHT22;16244;51.956;12.980;2024-02-23T09:41:19;10.50;74.30
29201;DHT22;16244;51.956;12.980;2024-02-23T09:43:50;10.50;74.50
29201;DHT22;16244;51.956;12.980;2024-02-23T09:46:19;10.60;75.10
29201;DHT22;16244;51.956;12.980;2024-02-23T09:48:48;10.50;70.50
29201;DHT22;16244;51.956;12.980;2024-02-23T09:51:18;10.70;70.00
29201;DHT22;16244;51.956;12.980;2024-02-23T09:53:49;10.50;71.60
29201;DHT22;16244;51.956;12.980;2024-02-23T09:56:17;10.20;72.30
29201;DHT22;16244;51.956;12.980;2024-02-23T09:58:49;9.90;72.90
29201;DHT22;16244;51.956;12.980;2024-02-23T10:01:21;9.60;74.40
29201;DHT22;16244;51.956;12.980;2024-02-23T10:03:56;9.60;77.40
29201;DHT22;16244;51.956;12.980;2024-02-23T10:06:24;9.80;78.10
29201;DHT22;16244;51.956;12.980;2024-02-23T10:08:53;10.30;74.70
29201;DHT22;16244;51.956;12.980;2024-02-23T10:11:21;10.50;72.60
29201;DHT22;16244;51.956;12.980;2024-02-23T10:13:49;10.70;71.50
29201;DHT22;16244;51.956;12.980;2024-02-23T10:16:19;10.60;72.00
29201;DHT22;16244;51.956;12.980;2024-02-23T10:18:48;10.80;70.90
29201;DHT22;16244;51.956;12.980;2024-02-23T10:21:16;10.50;68.90
29201;DHT22;16244;51.956;12.980;2024-02-23T10:23:44;10.50;69.90
29201;DHT22;16244;51.956;12.980;2024-02-23T10:26:14;10.50;71.10
29201;DHT22;16244;51.956;12.980;2024-02-23T10:28:45;10.30;69.30
29201;DHT22;16244;51.956;12.980;2024-02-23T10:31:13;10.10;70.10
29201;DHT22;16244;51.956;12.980;2024-02-23T10:33:41;9.90;70.50
29201;DHT22;16244;51.956;12.980;2024-02-23T10:36:15;10.00;71.70
29201;DHT22;16244;51.956;12.980;2024-02-23T10:38:45;10.00;70.60
29201;DHT22;16244;51.956;12.980;2024-02-23T10:41:17;9.90;71.10
29201;DHT22;16244;51.956;12.980;2024-02-23T10:43:48;9.80;72.10
29201;DHT22;16244;51.956;12.980;2024-02-23T10:46:16;9.90;71.80
29201;DHT22;16244;51.956;12.980;2024-02-23T10:48:45;9.70;72.20
29201;DHT22;16244;51.956;12.980;2024-02-23T10:51:17;9.60;72.10
29201;DHT22;16244;51.956;12.980;2024-02-23T10:53:45;9.60;69.00
29201;DHT22;16244;51.956;12.980;2024-02-23T10:56:19;9.60;69.60
29201;DHT22;16244;51.956;12.980;2024-02-23T10:58:49;9.40;71.70
29201;DHT22;16244;51.956;12.980;2024-02-23T11:01:18;9.40;70.60
29201;DHT22;16244;51.956;12.980;2024-02-23T11:03:46;9.50;70.30
29201;DHT22;16244;51.956;12.980;2024-02-23T11:06:17;9.60;70.80
29201;DHT22;16244;51.956;12.980;2024-02-23T11:08:47;9.60;70.10
29201;DHT22;16244;51.956;12.980;2024-02-23T11:11:17;9.70;70.90
29201;DHT22;16244;51.956;12.980;2024-02-23T11:13:46;9.80;71.10
29201;DHT22;16244;51.956;12.980;2024-02-23T11:16:21;9.80;72.10
29201;DHT22;16244;51.956;12.980;2024-02-23T11:19:03;9.80;71.40
29201;DHT22;16244;51.956;12.980;2024-02-23T11:21:34;9.70;72.00
29201;DHT22;16244;51.956;12.980;2024-02-23T11:24:03;9.80;70.60
29201;DHT22;16244;51.956;12.980;2024-02-23T11:26:33;9.70;70.00
29201;DHT22;16244;51.956;12.980;2024-02-23T11:29:10;9.60;70.70
29201;DHT22;16244;51.956;12.980;2024-02-23T11:31:44;9.80;72.10
29201;DHT22;16244;51.956;12.980;2024-02-23T11:34:12;9.90;72.90
29201;DHT22;16244;51.956;12.980;2024-02-23T11:36:39;9.90;72.70
29201;DHT22;16244;51.956;12.980;2024-02-23T11:39:10;9.90;72.60
29201;DHT22;16244;51.956;12.980;2024-02-23T11:41:40;9.90;71.70
29201;DHT22;16244;51.956;12.980;2024-02-23T11:44:09;9.90;71.30
29201;DHT22;16244;51.956;12.980;2024-02-23T11:46:36;9.80;72.20
29201;DHT22;16244;51.956;12.980;2024-02-23T11:49:04;9.90;70.30
29201;DHT22;16244;51.956;12.980;2024-02-23T11:51:32;9.80;70.10
29201;DHT22;16244;51.956;12.980;2024-02-23T11:54:00;9.60;69.40
29201;DHT22;16244;51.956;12.980;2024-02-23T11:56:29;9.60;70.90
29201;DHT22;16244;51.956;12.980;2024-02-23T11:58:58;9.70;71.70
29201;DHT22;16244;51.956;12.980;2024-02-23T12:01:29;9.70;70.90
29201;DHT22;16244;51.956;12.980;2024-02-23T12:03:56;9.60;70.60
29201;DHT22;16244;51.956;12.980;2024-02-23T12:06:24;9.60;72.10
29201;DHT22;16244;51.956;12.980;2024-02-23T12:08:56;9.60;73.20
29201;DHT22;16244;51.956;12.980;2024-02-23T12:11:25;9.60;73.20
29201;DHT22;16244;51.956;12.980;2024-02-23T12:13:54;9.70;73.30
29201;DHT22;16244;51.956;12.980;2024-02-23T12:16:25;9.60;71.60
29201;DHT22;16244;51.956;12.980;2024-02-23T12:18:53;9.60;71.60
29201;DHT22;16244;51.956;12.980;2024-02-23T12:21:23;9.60;71.80
29201;DHT22;16244;51.956;12.980;2024-02-23T12:23:51;9.60;69.90
29201;DHT22;16244;51.956;12.980;2024-02-23T12:26:19;9.50;69.80
29201;DHT22;16244;51.956;12.980;2024-02-23T12:28:47;9.40;69.10
29201;DHT22;16244;51.956;12.980;2024-02-23T12:31:14;9.50;69.10
29201;DHT22;16244;51.956;12.980;2024-02-23T12:33:43;9.40;68.30
29201;DHT22;16244;51.956;12.980;2024-02-23T12:36:18;9.30;69.30
29201;DHT22;16244;51.956;12.980;2024-02-23T12:38:46;9.30;69.60
29201;DHT22;16244;51.956;12.980;2024-02-23T12:41:13;9.30;68.60
29201;DHT22;16244;51.956;12.980;2024-02-23T12:43:41;9.30;70.30
29201;DHT22;16244;51.956;12.980;2024-02-23T12:46:09;9.20;67.60
29201;DHT22;16244;51.956;12.980;2024-02-23T12:48:40;9.20;70.50
29201;DHT22;16244;51.956;12.980;2024-02-23T12:51:10;9.20;69.30
29201;DHT22;16244;51.956;12.980;2024-02-23T12:53:39;9.20;70.10
29201;DHT22;16244;51.956;12.980;2024-02-23T12:56:09;9.30;70.40
29201;DHT22;16244;51.956;12.980;2024-02-23T12:58:38;9.30;71.80
29201;DHT22;16244;51.956;12.980;2024-02-23T13:01:06;9.40;69.10
29201;DHT22;16244;51.956;12.980;2024-02-23T13:03:34;9.40;70.70
29201;DHT22;16244;51.956;12.980;2024-02-23T13:06:03;9.50;73.00
29201;DHT22;16244;51.956;12.980;2024-02-23T13:08:32;9.60;72.90
29201;DHT22;16244;51.956;12.980;2024-02-23T13:11:01;9.60;71.00
29201;DHT22;16244;51.956;12.980;2024-02-23T13:13:29;9.60;72.40
29201;DHT22;16244;51.956;12.980;2024-02-23T13:15:58;9.60;71.90
29201;DHT22;16244;51.956;12.980;2024-02-23T13:18:26;9.60;73.50
29201;DHT22;16244;51.956;12.980;2024-02-23T13:20:53;9.70;73.30
29201;DHT22;16244;51.956;12.980;2024-02-23T13:23:21;9.70;74.00
29201;DHT22;16244;51.956;12.980;2024-02-23T13:25:50;9.70;74.40
29201;DHT22;16244;51.956;12.980;2024-02-23T13:28:17;9.70;73.70
29201;DHT22;16244;51.956;12.980;2024-02-23T13:30:45;9.70;74.30
29201;DHT22;16244;51.956;12.980;2024-02-23T13:33:12;9.80;74.90
29201;DHT22;16244;51.956;12.980;2024-02-23T13:35:41;9.80;71.00
29201;DHT22;16244;51.956;12.980;2024-02-23T13:38:09;9.60;71.80
29201;DHT22;16244;51.956;12.980;2024-02-23T13:40:37;9.60;71.40
29201;DHT22;16244;51.956;12.980;2024-02-23T13:43:06;9.50;70.50
29201;DHT22;16244;51.956;12.980;2024-02-23T13:45:48;9.40;71.70
29201;DHT22;16244;51.956;12.980;2024-02-23T13:48:16;9.50;71.20
29201;DHT22;16244;51.956;12.980;2024-02-23T13:50:45;9.50;69.90
29201;DHT22;16244;51.956;12.980;2024-02-23T13:53:13;9.50;71.90
29201;DHT22;16244;51.956;12.980;2024-02-23T13:55:41;9.40;69.80
29201;DHT22;16244;51.956;12.980;2024-02-23T13:58:11;9.40;70.20
29201;DHT22;16244;51.956;12.980;2024-02-23T14:00:39;9.40;71.40
29201;DHT22;16244;51.956;12.980;2024-02-23T14:03:07;9.40;71.20
29201;DHT22;16244;51.956;12.980;2024-02-23T14:05:34;9.40;71.80
29201;DHT22;16244;51.956;12.980;2024-02-23T14:08:02;9.30;72.40
29201;DHT22;16244;51.956;12.980;2024-02-23T14:10:31;9.20;74.20
29201;DHT22;16244;51.956;12.980;2024-02-23T14:12:58;9.30;73.70
29201;DHT22;16244;51.956;12.980;2024-02-23T14:15:28;9.20;73.00
29201;DHT22;16244;51.956;12.980;2024-02-23T14:17:55;9.30;73.60
29201;DHT22;16244;51.956;12.980;2024-02-23T14:20:23;9.30;73.50
29201;DHT22;16244;51.956;12.980;2024-02-23T14:22:50;9.20;73.80
29201;DHT22;16244;51.956;12.980;2024-02-23T14:25:19;9.10;73.70
29201;DHT22;16244;51.956;12.980;2024-02-23T14:27:46;9.20;76.10
29201;DHT22;16244;51.956;12.980;2024-02-23T14:30:14;9.20;75.10
29201;DHT22;16244;51.956;12.980;2024-02-23T14:32:43;9.00;72.80
29201;DHT22;16244;51.956;12.980;2024-02-23T14:35:11;9.10;73.10
29201;DHT22;16244;51.956;12.980;2024-02-23T14:37:38;8.90;72.60
29201;DHT22;16244;51.956;12.980;2024-02-23T14:40:08;9.00;74.40
29201;DHT22;16244;51.956;12.980;2024-02-23T14:42:35;9.00;75.00
29201;DHT22;16244;51.956;12.980;2024-02-23T14:45:05;9.10;75.80
29201;DHT22;16244;51.956;12.980;2024-02-23T14:47:33;9.00;74.90
29201;DHT22;16244;51.956;12.980;2024-02-23T14:50:02;9.00;74.90
29201;DHT22;16244;51.956;12.980;2024-02-23T14:52:30;8.90;76.10
29201;DHT22;16244;51.956;12.980;2024-02-23T14:54:57;8.90;74.80
29201;DHT22;16244;51.956;12.980;2024-02-23T14:57:25;8.90;76.60
29201;DHT22;16244;51.956;12.980;2024-02-23T14:59:53;8.90;77.30
29201;DHT22;16244;51.956;12.980;2024-02-23T15:02:21;8.80;78.00
29201;DHT22;16244;51.956;12.980;2024-02-23T15:04:49;8.90;78.20
29201;DHT22;16244;51.956;12.980;2024-02-23T15:07:18;8.80;77.40
29201;DHT22;16244;51.956;12.980;2024-02-23T15:09:46;8.80;78.80
29201;DHT22;16244;51.956;12.980;2024-02-23T15:12:13;8.80;79.50
29201;DHT22;16244;51.956;12.980;2024-02-23T15:14:41;8.80;79.30
29201;DHT22;16244;51.956;12.980;2024-02-23T15:17:08;8.80;80.30
29201;DHT22;16244;51.956;12.980;2024-02-23T15:19:36;8.70;79.50
29201;DHT22;16244;51.956;12.980;2024-02-23T15:22:04;8.70;79.00
29201;DHT22;16244;51.956;12.980;2024-02-23T15:24:36;8.60;80.10
29201;DHT22;16244;51.956;12.980;2024-02-23T15:27:03;8.60;80.90
29201;DHT22;16244;51.956;12.980;2024-02-23T15:29:31;8.60;82.10
29201;DHT22;16244;51.956;12.980;2024-02-23T15:31:59;8.50;81.50
29201;DHT22;16244;51.956;12.980;2024-02-23T15:34:27;8.50;82.00